sensor_id;sensor_type;location;lat;lon;timestamp;P1;durP1;ratioP1;P2;durP2;ratioP2
80705;SDS011;70229;48.010;7.852;2024-03-08T00:01:59;33.85;;;24.17;;
80705;SDS011;70229;48.010;7.852;2024-03-08T00:04:25;38.03;;;25.40;;
80705;SDS011;70229;48.010;7.852;2024-03-08T00:06:50;36.58;;;25.33;;
80705;SDS011;70229;48.010;7.852;2024-03-08T00:09:16;33.80;;;23.88;;
80705;SDS011;70229;48.010;7.852;2024-03-08T00:11:42;35.67;;;25.95;;
80705;SDS011;70229;48.010;7.852;2024-03-08T00:14:07;35.08;;;25.65;;
80705;SDS011;70229;48.010;7.852;2024-03-08T00:16:33;27.35;;;19.25;;
80705;SDS011;70229;48.010;7.852;2024-03-08T00:19:00;26.48;;;19.35;;
80705;SDS011;70229;48.010;7.852;2024-03-08T00:21:26;27.13;;;18.92;;
80705;SDS011;70229;48.010;7.852;2024-03-08T00:23:52;28.70;;;18.25;;
80705;SDS011;70229;48.010;7.852;2024-03-08T00:26:19;25.90;;;20.02;;
80705;SDS011;70229;48.010;7.852;2024-03-08T00:28:47;27.52;;;19.23;;
80705;SDS011;70229;48.010;7.852;2024-03-08T00:31:13;33.28;;;22.33;;
80705;SDS011;70229;48.010;7.852;2024-03-08T00:33:40;29.42;;;22.27;;
80705;SDS011;70229;48.010;7.852;2024-03-08T00:36:06;32.42;;;20.88;;
80705;SDS011;70229;48.010;7.852;2024-03-08T00:38:32;30.60;;;21.92;;
80705;SDS011;70229;48.010;7.852;2024-03-08T00:40:59;23.33;;;18.48;;
80705;SDS011;70229;48.010;7.852;2024-03-08T00:43:25;28.27;;;19.55;;
80705;SDS011;70229;48.010;7.852;2024-03-08T00:45:50;25.02;;;20.20;;
80705;SDS011;70229;48.010;7.852;2024-03-08T00:48:16;24.15;;;19.83;;
80705;SDS011;70229;48.010;7.852;2024-03-08T00:50:42;23.15;;;19.08;;
80705;SDS011;70229;48.010;7.852;2024-03-08T00:53:10;24.58;;;18.02;;
80705;SDS011;70229;48.010;7.852;2024-03-08T00:55:36;34.80;;;19.60;;
80705;SDS011;70229;48.010;7.852;2024-03-08T00:58:03;23.77;;;19.00;;
80705;SDS011;70229;48.010;7.852;2024-03-08T01:00:29;24.45;;;17.85;;
80705;SDS011;70229;48.010;7.852;2024-03-08T01:02:54;29.30;;;19.92;;
80705;SDS011;70229;48.010;7.852;2024-03-08T01:05:20;26.08;;;18.23;;
80705;SDS011;70229;48.010;7.852;2024-03-08T01:07:46;24.95;;;18.38;;
80705;SDS011;70229;48.010;7.852;2024-03-08T01:10:12;26.63;;;18.17;;
80705;SDS011;70229;48.010;7.852;2024-03-08T01:12:38;22.08;;;16.08;;
80705;SDS011;70229;48.010;7.852;2024-03-08T01:15:04;24.98;;;16.67;;
80705;SDS011;70229;48.010;7.852;2024-03-08T01:17:30;22.85;;;16.75;;
80705;SDS011;70229;48.010;7.852;2024-03-08T01:19:56;24.75;;;16.35;;
80705;SDS011;70229;48.010;7.852;2024-03-08T01:22:21;21.30;;;16.30;;
80705;SDS011;70229;48.010;7.852;2024-03-08T01:24:47;24.73;;;16.48;;
80705;SDS011;70229;48.010;7.852;2024-03-08T01:27:13;23.23;;;16.08;;
80705;SDS011;70229;48.010;7.852;2024-03-08T01:39:59;24.77;;;15.75;;
80705;SDS011;70229;48.010;7.852;2024-03-08T01:42:24;21.90;;;15.32;;
80705;SDS011;70229;48.010;7.852;2024-03-08T01:44:50;21.70;;;14.25;;
80705;SDS011;70229;48.010;7.852;2024-03-08T01:47:16;19.80;;;14.45;;
80705;SDS011;70229;48.010;7.852;2024-03-08T01:49:42;20.65;;;14.32;;
80705;SDS011;70229;48.010;7.852;2024-03-08T01:52:08;20.30;;;15.10;;
80705;SDS011;70229;48.010;7.852;2024-03-08T01:54:36;20.83;;;14.63;;
80705;SDS011;70229;48.010;7.852;2024-03-08T01:57:02;19.92;;;14.68;;
80705;SDS011;70229;48.010;7.852;2024-03-08T01:59:28;21.25;;;14.38;;
80705;SDS011;70229;48.010;7.852;2024-03-08T02:01:55;17.77;;;14.32;;
80705;SDS011;70229;48.010;7.852;2024-03-08T02:04:23;20.27;;;15.05;;
80705;SDS011;70229;48.010;7.852;2024-03-08T02:06:49;17.42;;;13.55;;
80705;SDS011;70229;48.010;7.852;2024-03-08T02:09:15;18.30;;;14.07;;
80705;SDS011;70229;48.010;7.852;2024-03-08T02:11:42;17.90;;;13.10;;
80705;SDS011;70229;48.010;7.852;2024-03-08T02:14:08;19.38;;;13.98;;
80705;SDS011;70229;48.010;7.852;2024-03-08T02:16:34;21.17;;;14.93;;
80705;SDS011;70229;48.010;7.852;2024-03-08T02:19:00;18.13;;;14.25;;
80705;SDS011;70229;48.010;7.852;2024-03-08T02:21:25;19.27;;;13.30;;
80705;SDS011;70229;48.010;7.852;2024-03-08T02:23:51;16.65;;;12.40;;
80705;SDS011;70229;48.010;7.852;2024-03-08T02:26:17;20.70;;;13.48;;
80705;SDS011;70229;48.010;7.852;2024-03-08T02:28:43;18.65;;;14.88;;
80705;SDS011;70229;48.010;7.852;2024-03-08T02:31:10;19.55;;;14.00;;
80705;SDS011;70229;48.010;7.852;2024-03-08T02:33:35;21.83;;;14.07;;
80705;SDS011;70229;48.010;7.852;2024-03-08T02:36:01;20.90;;;14.10;;
80705;SDS011;70229;48.010;7.852;2024-03-08T02:38:27;22.90;;;14.73;;
80705;SDS011;70229;48.010;7.852;2024-03-08T02:40:53;19.80;;;14.50;;
80705;SDS011;70229;48.010;7.852;2024-03-08T02:43:19;20.52;;;14.20;;
80705;SDS011;70229;48.010;7.852;2024-03-08T02:45:49;20.27;;;12.38;;
80705;SDS011;70229;48.010;7.852;2024-03-08T02:48:15;19.13;;;14.57;;
80705;SDS011;70229;48.010;7.852;2024-03-08T02:50:46;19.33;;;13.57;;
80705;SDS011;70229;48.010;7.852;2024-03-08T02:53:13;15.80;;;12.75;;
80705;SDS011;70229;48.010;7.852;2024-03-08T02:55:39;19.67;;;14.38;;
80705;SDS011;70229;48.010;7.852;2024-03-08T02:58:06;17.48;;;13.38;;
80705;SDS011;70229;48.010;7.852;2024-03-08T03:00:35;17.15;;;13.18;;
80705;SDS011;70229;48.010;7.852;2024-03-08T03:03:01;18.13;;;12.55;;
80705;SDS011;70229;48.010;7.852;2024-03-08T03:05:28;17.52;;;13.82;;
80705;SDS011;70229;48.010;7.852;2024-03-08T03:07:54;21.33;;;14.60;;
80705;SDS011;70229;48.010;7.852;2024-03-08T03:10:20;21.13;;;15.00;;
80705;SDS011;70229;48.010;7.852;2024-03-08T03:12:47;22.00;;;12.70;;
80705;SDS011;70229;48.010;7.852;2024-03-08T03:15:17;19.52;;;13.82;;
80705;SDS011;70229;48.010;7.852;2024-03-08T03:17:47;18.42;;;13.85;;
80705;SDS011;70229;48.010;7.852;2024-03-08T03:20:20;22.33;;;16.38;;
80705;SDS011;70229;48.010;7.852;2024-03-08T03:22:57;20.13;;;13.70;;
80705;SDS011;70229;48.010;7.852;2024-03-08T03:25:25;23.92;;;15.50;;
80705;SDS011;70229;48.010;7.852;2024-03-08T03:27:54;29.83;;;15.77;;
80705;SDS011;70229;48.010;7.852;2024-03-08T03:30:24;25.27;;;15.55;;
80705;SDS011;70229;48.010;7.852;2024-03-08T03:32:51;19.63;;;13.90;;
80705;SDS011;70229;48.010;7.852;2024-03-08T03:35:19;18.83;;;13.20;;
80705;SDS011;70229;48.010;7.852;2024-03-08T03:37:46;29.58;;;16.60;;
80705;SDS011;70229;48.010;7.852;2024-03-08T03:40:26;20.13;;;14.00;;
80705;SDS011;70229;48.010;7.852;2024-03-08T03:42:53;19.55;;;13.40;;
80705;SDS011;70229;48.010;7.852;2024-03-08T03:45:18;21.15;;;15.65;;
80705;SDS011;70229;48.010;7.852;2024-03-08T03:47:45;19.02;;;13.82;;
80705;SDS011;70229;48.010;7.852;2024-03-08T03:50:10;19.17;;;14.25;;
80705;SDS011;70229;48.010;7.852;2024-03-08T03:52:36;25.15;;;15.13;;
80705;SDS011;70229;48.010;7.852;2024-03-08T03:55:02;20.25;;;13.30;;
80705;SDS011;70229;48.010;7.852;2024-03-08T03:57:29;20.38;;;14.38;;
80705;SDS011;70229;48.010;7.852;2024-03-08T03:59:55;22.52;;;14.15;;
80705;SDS011;70229;48.010;7.852;2024-03-08T04:02:22;18.10;;;13.20;;
80705;SDS011;70229;48.010;7.852;2024-03-08T04:04:47;21.52;;;13.60;;
80705;SDS011;70229;48.010;7.852;2024-03-08T04:07:14;22.42;;;13.88;;
80705;SDS011;70229;48.010;7.852;2024-03-08T04:09:40;18.88;;;13.30;;
80705;SDS011;70229;48.010;7.852;2024-03-08T04:12:06;20.08;;;14.45;;
80705;SDS011;70229;48.010;7.852;2024-03-08T04:14:32;18.92;;;14.35;;
80705;SDS011;70229;48.010;7.852;2024-03-08T04:16:59;16.98;;;12.35;;
80705;SDS011;70229;48.010;7.852;2024-03-08T04:19:25;19.45;;;14.55;;
80705;SDS011;70229;48.010;7.852;2024-03-08T04:21:54;17.35;;;13.02;;
80705;SDS011;70229;48.010;7.852;2024-03-08T04:24:20;19.17;;;13.95;;
80705;SDS011;70229;48.010;7.852;2024-03-08T04:26:46;23.00;;;15.25;;
80705;SDS011;70229;48.010;7.852;2024-03-08T04:29:18;21.15;;;12.95;;
80705;SDS011;70229;48.010;7.852;2024-03-08T04:31:47;21.35;;;14.65;;
80705;SDS011;70229;48.010;7.852;2024-03-08T04:34:13;17.17;;;12.82;;
80705;SDS011;70229;48.010;7.852;2024-03-08T04:36:39;21.33;;;14.40;;
80705;SDS011;70229;48.010;7.852;2024-03-08T04:39:05;14.50;;;12.20;;
80705;SDS011;70229;48.010;7.852;2024-03-08T04:41:34;18.08;;;13.27;;
80705;SDS011;70229;48.010;7.852;2024-03-08T04:44:03;19.38;;;13.60;;
80705;SDS011;70229;48.010;7.852;2024-03-08T04:46:29;16.90;;;11.75;;
80705;SDS011;70229;48.010;7.852;2024-03-08T04:48:54;17.15;;;12.25;;
80705;SDS011;70229;48.010;7.852;2024-03-08T04:51:20;19.02;;;13.27;;
80705;SDS011;70229;48.010;7.852;2024-03-08T04:53:45;24.88;;;13.20;;
80705;SDS011;70229;48.010;7.852;2024-03-08T04:56:11;16.65;;;11.82;;
80705;SDS011;70229;48.010;7.852;2024-03-08T04:58:37;15.02;;;12.02;;
80705;SDS011;70229;48.010;7.852;2024-03-08T05:01:04;20.35;;;13.43;;
80705;SDS011;70229;48.010;7.852;2024-03-08T05:03:30;19.98;;;13.38;;
80705;SDS011;70229;48.010;7.852;2024-03-08T05:05:55;15.68;;;11.82;;
80705;SDS011;70229;48.010;7.852;2024-03-08T05:08:21;21.48;;;13.50;;
80705;SDS011;70229;48.010;7.852;2024-03-08T05:10:48;17.95;;;12.70;;
80705;SDS011;70229;48.010;7.852;2024-03-08T05:13:14;18.15;;;13.52;;
80705;SDS011;70229;48.010;7.852;2024-03-08T05:15:39;17.30;;;12.57;;
80705;SDS011;70229;48.010;7.852;2024-03-08T05:18:05;19.83;;;12.55;;
80705;SDS011;70229;48.010;7.852;2024-03-08T05:20:31;18.98;;;12.38;;
80705;SDS011;70229;48.010;7.852;2024-03-08T05:22:56;15.43;;;11.93;;
80705;SDS011;70229;48.010;7.852;2024-03-08T05:25:26;19.58;;;13.98;;
80705;SDS011;70229;48.010;7.852;2024-03-08T05:27:56;20.08;;;14.27;;
80705;SDS011;70229;48.010;7.852;2024-03-08T05:30:22;18.95;;;14.02;;
80705;SDS011;70229;48.010;7.852;2024-03-08T05:32:48;17.02;;;13.68;;
80705;SDS011;70229;48.010;7.852;2024-03-08T05:38:40;23.00;;;15.32;;
80705;SDS011;70229;48.010;7.852;2024-03-08T05:51:48;23.65;;;15.07;;
80705;SDS011;70229;48.010;7.852;2024-03-08T05:54:39;20.58;;;15.25;;
80705;SDS011;70229;48.010;7.852;2024-03-08T05:57:26;18.88;;;13.20;;
80705;SDS011;70229;48.010;7.852;2024-03-08T06:00:45;26.83;;;15.70;;
80705;SDS011;70229;48.010;7.852;2024-03-08T06:03:54;27.00;;;14.98;;
80705;SDS011;70229;48.010;7.852;2024-03-08T06:06:24;21.75;;;14.95;;
80705;SDS011;70229;48.010;7.852;2024-03-08T06:08:50;23.55;;;16.23;;
80705;SDS011;70229;48.010;7.852;2024-03-08T06:11:17;19.98;;;14.02;;
80705;SDS011;70229;48.010;7.852;2024-03-08T06:13:49;20.08;;;14.77;;
80705;SDS011;70229;48.010;7.852;2024-03-08T06:16:15;19.40;;;14.57;;
80705;SDS011;70229;48.010;7.852;2024-03-08T06:18:42;22.08;;;14.43;;
80705;SDS011;70229;48.010;7.852;2024-03-08T06:21:08;20.42;;;14.95;;
80705;SDS011;70229;48.010;7.852;2024-03-08T06:23:36;21.55;;;14.23;;
80705;SDS011;70229;48.010;7.852;2024-03-08T06:26:04;22.15;;;14.38;;
80705;SDS011;70229;48.010;7.852;2024-03-08T06:28:43;23.35;;;16.02;;
80705;SDS011;70229;48.010;7.852;2024-03-08T06:31:08;20.02;;;14.68;;
80705;SDS011;70229;48.010;7.852;2024-03-08T06:33:36;22.55;;;15.65;;
80705;SDS011;70229;48.010;7.852;2024-03-08T06:36:01;23.13;;;16.35;;
80705;SDS011;70229;48.010;7.852;2024-03-08T06:38:27;21.15;;;14.02;;
80705;SDS011;70229;48.010;7.852;2024-03-08T06:40:52;22.50;;;14.80;;
80705;SDS011;70229;48.010;7.852;2024-03-08T06:43:19;23.58;;;15.45;;
80705;SDS011;70229;48.010;7.852;2024-03-08T06:49:07;24.33;;;15.40;;
80705;SDS011;70229;48.010;7.852;2024-03-08T06:51:35;20.95;;;15.35;;
80705;SDS011;70229;48.010;7.852;2024-03-08T06:54:01;22.95;;;16.23;;
80705;SDS011;70229;48.010;7.852;2024-03-08T06:56:33;25.05;;;15.23;;
80705;SDS011;70229;48.010;7.852;2024-03-08T06:58:59;23.23;;;14.88;;
80705;SDS011;70229;48.010;7.852;2024-03-08T07:01:25;23.95;;;15.70;;
80705;SDS011;70229;48.010;7.852;2024-03-08T07:03:50;25.10;;;16.52;;
80705;SDS011;70229;48.010;7.852;2024-03-08T07:06:17;24.00;;;15.77;;
80705;SDS011;70229;48.010;7.852;2024-03-08T07:08:44;21.70;;;15.73;;
80705;SDS011;70229;48.010;7.852;2024-03-08T07:11:11;23.92;;;16.30;;
80705;SDS011;70229;48.010;7.852;2024-03-08T07:13:37;21.45;;;16.27;;
80705;SDS011;70229;48.010;7.852;2024-03-08T07:16:04;30.75;;;15.10;;
80705;SDS011;70229;48.010;7.852;2024-03-08T07:18:30;28.85;;;16.13;;
80705;SDS011;70229;48.010;7.852;2024-03-08T07:20:56;28.98;;;17.92;;
80705;SDS011;70229;48.010;7.852;2024-03-08T07:23:22;21.90;;;15.45;;
80705;SDS011;70229;48.010;7.852;2024-03-08T07:26:06;22.90;;;16.00;;
80705;SDS011;70229;48.010;7.852;2024-03-08T07:28:31;22.77;;;17.52;;
80705;SDS011;70229;48.010;7.852;2024-03-08T07:30:58;21.65;;;15.43;;
80705;SDS011;70229;48.010;7.852;2024-03-08T07:33:42;24.55;;;19.73;;
80705;SDS011;70229;48.010;7.852;2024-03-08T07:36:07;24.55;;;16.83;;
80705;SDS011;70229;48.010;7.852;2024-03-08T07:38:33;26.60;;;18.58;;
80705;SDS011;70229;48.010;7.852;2024-03-08T07:40:59;25.95;;;18.48;;
80705;SDS011;70229;48.010;7.852;2024-03-08T07:43:25;27.73;;;19.63;;
80705;SDS011;70229;48.010;7.852;2024-03-08T07:45:52;26.25;;;18.52;;
80705;SDS011;70229;48.010;7.852;2024-03-08T07:48:20;25.95;;;17.95;;
80705;SDS011;70229;48.010;7.852;2024-03-08T07:50:46;25.88;;;18.77;;
80705;SDS011;70229;48.010;7.852;2024-03-08T07:53:11;24.63;;;18.77;;
80705;SDS011;70229;48.010;7.852;2024-03-08T07:55:37;30.63;;;20.05;;
80705;SDS011;70229;48.010;7.852;2024-03-08T07:58:07;25.50;;;18.02;;
80705;SDS011;70229;48.010;7.852;2024-03-08T08:00:36;28.42;;;20.02;;
80705;SDS011;70229;48.010;7.852;2024-03-08T08:03:01;23.10;;;18.95;;
80705;SDS011;70229;48.010;7.852;2024-03-08T08:05:28;26.35;;;19.38;;
80705;SDS011;70229;48.010;7.852;2024-03-08T08:07:53;25.27;;;19.25;;
80705;SDS011;70229;48.010;7.852;2024-03-08T08:10:19;28.60;;;19.08;;
80705;SDS011;70229;48.010;7.852;2024-03-08T08:12:49;24.95;;;17.98;;
80705;SDS011;70229;48.010;7.852;2024-03-08T08:15:16;36.58;;;19.73;;
80705;SDS011;70229;48.010;7.852;2024-03-08T08:17:42;21.67;;;16.77;;
80705;SDS011;70229;48.010;7.852;2024-03-08T08:20:09;22.55;;;16.65;;
80705;SDS011;70229;48.010;7.852;2024-03-08T08:22:37;24.25;;;17.55;;
80705;SDS011;70229;48.010;7.852;2024-03-08T08:25:04;22.20;;;15.50;;
80705;SDS011;70229;48.010;7.852;2024-03-08T08:27:29;22.98;;;17.00;;
80705;SDS011;70229;48.010;7.852;2024-03-08T08:29:55;22.10;;;16.23;;
80705;SDS011;70229;48.010;7.852;2024-03-08T08:32:21;21.52;;;16.02;;
80705;SDS011;70229;48.010;7.852;2024-03-08T08:34:46;21.02;;;16.23;;
80705;SDS011;70229;48.010;7.852;2024-03-08T08:37:12;18.52;;;15.30;;
80705;SDS011;70229;48.010;7.852;2024-03-08T08:39:38;22.88;;;15.65;;
80705;SDS011;70229;48.010;7.852;2024-03-08T08:42:04;18.75;;;14.60;;
80705;SDS011;70229;48.010;7.852;2024-03-08T08:44:30;15.88;;;13.52;;
80705;SDS011;70229;48.010;7.852;2024-03-08T08:46:59;19.80;;;13.35;;
80705;SDS011;70229;48.010;7.852;2024-03-08T08:49:25;18.48;;;14.77;;
80705;SDS011;70229;48.010;7.852;2024-03-08T08:51:51;22.52;;;15.20;;
80705;SDS011;70229;48.010;7.852;2024-03-08T08:54:17;19.33;;;16.15;;
80705;SDS011;70229;48.010;7.852;2024-03-08T08:56:43;23.23;;;15.15;;
80705;SDS011;70229;48.010;7.852;2024-03-08T08:59:09;20.90;;;15.15;;
80705;SDS011;70229;48.010;7.852;2024-03-08T09:01:38;22.20;;;14.38;;
80705;SDS011;70229;48.010;7.852;2024-03-08T09:04:04;23.27;;;16.10;;
80705;SDS011;70229;48.010;7.852;2024-03-08T09:06:30;18.88;;;13.77;;
80705;SDS011;70229;48.010;7.852;2024-03-08T09:08:56;17.50;;;14.55;;
80705;SDS011;70229;48.010;7.852;2024-03-08T09:11:22;20.48;;;14.18;;
80705;SDS011;70229;48.010;7.852;2024-03-08T09:13:50;20.02;;;13.63;;
80705;SDS011;70229;48.010;7.852;2024-03-08T09:16:15;18.13;;;14.75;;
80705;SDS011;70229;48.010;7.852;2024-03-08T09:18:41;20.45;;;14.30;;
80705;SDS011;70229;48.010;7.852;2024-03-08T09:21:07;17.83;;;13.57;;
80705;SDS011;70229;48.010;7.852;2024-03-08T09:23:35;18.15;;;14.13;;
80705;SDS011;70229;48.010;7.852;2024-03-08T09:26:03;19.30;;;13.73;;
80705;SDS011;70229;48.010;7.852;2024-03-08T09:28:29;14.82;;;13.23;;
80705;SDS011;70229;48.010;7.852;2024-03-08T09:30:54;18.83;;;13.75;;
80705;SDS011;70229;48.010;7.852;2024-03-08T09:33:20;17.60;;;12.02;;
80705;SDS011;70229;48.010;7.852;2024-03-08T09:35:47;16.75;;;12.75;;
80705;SDS011;70229;48.010;7.852;2024-03-08T09:38:13;17.42;;;13.23;;
80705;SDS011;70229;48.010;7.852;2024-03-08T09:40:42;14.23;;;10.68;;
80705;SDS011;70229;48.010;7.852;2024-03-08T09:43:11;14.65;;;10.48;;
80705;SDS011;70229;48.010;7.852;2024-03-08T09:45:37;17.00;;;10.73;;
80705;SDS011;70229;48.010;7.852;2024-03-08T09:48:05;15.05;;;10.13;;
80705;SDS011;70229;48.010;7.852;2024-03-08T09:50:37;15.75;;;9.93;;
80705;SDS011;70229;48.010;7.852;2024-03-08T09:53:03;14.25;;;10.40;;
80705;SDS011;70229;48.010;7.852;2024-03-08T09:55:29;17.48;;;10.27;;
80705;SDS011;70229;48.010;7.852;2024-03-08T09:57:59;14.48;;;8.95;;
80705;SDS011;70229;48.010;7.852;2024-03-08T10:00:45;12.88;;;8.32;;
80705;SDS011;70229;48.010;7.852;2024-03-08T10:03:10;11.18;;;8.50;;
80705;SDS011;70229;48.010;7.852;2024-03-08T10:05:37;13.73;;;8.95;;
80705;SDS011;70229;48.010;7.852;2024-03-08T10:08:03;15.10;;;8.52;;
80705;SDS011;70229;48.010;7.852;2024-03-08T10:10:33;16.27;;;9.32;;
80705;SDS011;70229;48.010;7.852;2024-03-08T10:12:59;11.38;;;8.00;;
80705;SDS011;70229;48.010;7.852;2024-03-08T10:15:26;15.73;;;7.90;;
80705;SDS011;70229;48.010;7.852;2024-03-08T10:17:55;12.15;;;7.60;;
80705;SDS011;70229;48.010;7.852;2024-03-08T10:20:21;15.60;;;9.55;;
80705;SDS011;70229;48.010;7.852;2024-03-08T10:22:48;11.88;;;8.27;;
80705;SDS011;70229;48.010;7.852;2024-03-08T10:25:14;11.57;;;7.45;;
80705;SDS011;70229;48.010;7.852;2024-03-08T10:27:40;11.18;;;7.25;;
80705;SDS011;70229;48.010;7.852;2024-03-08T10:30:06;11.82;;;8.35;;
80705;SDS011;70229;48.010;7.852;2024-03-08T10:32:38;14.57;;;8.57;;
80705;SDS011;70229;48.010;7.852;2024-03-08T10:35:03;12.73;;;8.60;;
80705;SDS011;70229;48.010;7.852;2024-03-08T10:37:29;15.65;;;10.25;;
80705;SDS011;70229;48.010;7.852;2024-03-08T10:40:02;13.68;;;9.43;;
80705;SDS011;70229;48.010;7.852;2024-03-08T10:42:35;12.13;;;9.15;;
80705;SDS011;70229;48.010;7.852;2024-03-08T10:45:08;12.60;;;8.70;;
80705;SDS011;70229;48.010;7.852;2024-03-08T10:47:58;17.33;;;11.00;;
80705;SDS011;70229;48.010;7.852;2024-03-08T10:50:43;12.98;;;9.75;;
80705;SDS011;70229;48.010;7.852;2024-03-08T10:53:10;10.32;;;7.78;;
80705;SDS011;70229;48.010;7.852;2024-03-08T10:55:38;13.90;;;9.38;;
80705;SDS011;70229;48.010;7.852;2024-03-08T10:58:08;11.55;;;8.90;;
80705;SDS011;70229;48.010;7.852;2024-03-08T11:00:34;11.98;;;8.32;;
80705;SDS011;70229;48.010;7.852;2024-03-08T11:03:01;13.85;;;8.52;;
80705;SDS011;70229;48.010;7.852;2024-03-08T11:05:32;11.68;;;9.05;;
80705;SDS011;70229;48.010;7.852;2024-03-08T11:08:03;11.15;;;8.15;;
80705;SDS011;70229;48.010;7.852;2024-03-08T11:10:50;15.07;;;9.48;;
80705;SDS011;70229;48.010;7.852;2024-03-08T11:19:23;13.10;;;9.35;;
80705;SDS011;70229;48.010;7.852;2024-03-08T11:21:56;12.10;;;8.38;;
80705;SDS011;70229;48.010;7.852;2024-03-08T11:24:39;13.52;;;9.20;;
80705;SDS011;70229;48.010;7.852;2024-03-08T11:27:05;15.48;;;8.93;;
80705;SDS011;70229;48.010;7.852;2024-03-08T11:37:05;12.48;;;9.60;;
80705;SDS011;70229;48.010;7.852;2024-03-08T11:39:39;14.18;;;8.80;;
80705;SDS011;70229;48.010;7.852;2024-03-08T11:42:11;15.23;;;9.15;;
80705;SDS011;70229;48.010;7.852;2024-03-08T11:44:36;13.52;;;10.88;;
80705;SDS011;70229;48.010;7.852;2024-03-08T11:47:02;13.75;;;9.52;;
80705;SDS011;70229;48.010;7.852;2024-03-08T11:49:33;14.02;;;9.27;;
80705;SDS011;70229;48.010;7.852;2024-03-08T11:51:58;12.93;;;9.55;;
80705;SDS011;70229;48.010;7.852;2024-03-08T11:54:24;13.10;;;10.25;;
80705;SDS011;70229;48.010;7.852;2024-03-08T11:56:51;13.18;;;9.38;;
80705;SDS011;70229;48.010;7.852;2024-03-08T11:59:17;13.82;;;9.88;;
80705;SDS011;70229;48.010;7.852;2024-03-08T12:01:43;12.82;;;9.27;;
80705;SDS011;70229;48.010;7.852;2024-03-08T12:04:11;11.98;;;8.73;;
80705;SDS011;70229;48.010;7.852;2024-03-08T12:06:38;13.52;;;9.30;;
80705;SDS011;70229;48.010;7.852;2024-03-08T12:09:09;13.98;;;10.68;;
80705;SDS011;70229;48.010;7.852;2024-03-08T12:11:38;13.27;;;10.40;;
80705;SDS011;70229;48.010;7.852;2024-03-08T12:14:04;17.67;;;10.80;;
80705;SDS011;70229;48.010;7.852;2024-03-08T12:16:31;13.27;;;10.43;;
80705;SDS011;70229;48.010;7.852;2024-03-08T12:18:57;14.00;;;9.40;;
80705;SDS011;70229;48.010;7.852;2024-03-08T12:21:23;13.35;;;10.07;;
80705;SDS011;70229;48.010;7.852;2024-03-08T12:24:04;13.82;;;10.32;;
80705;SDS011;70229;48.010;7.852;2024-03-08T12:26:34;13.52;;;10.63;;
80705;SDS011;70229;48.010;7.852;2024-03-08T12:29:18;12.52;;;9.73;;
80705;SDS011;70229;48.010;7.852;2024-03-08T12:31:52;15.27;;;9.68;;
80705;SDS011;70229;48.010;7.852;2024-03-08T12:34:19;15.75;;;11.05;;
80705;SDS011;70229;48.010;7.852;2024-03-08T12:36:48;14.43;;;11.32;;
80705;SDS011;70229;48.010;7.852;2024-03-08T12:39:17;13.05;;;10.00;;
80705;SDS011;70229;48.010;7.852;2024-03-08T12:41:47;12.95;;;9.90;;
80705;SDS011;70229;48.010;7.852;2024-03-08T12:44:14;16.13;;;11.63;;
80705;SDS011;70229;48.010;7.852;2024-03-08T12:46:40;13.68;;;11.18;;
80705;SDS011;70229;48.010;7.852;2024-03-08T12:49:08;16.75;;;13.45;;
80705;SDS011;70229;48.010;7.852;2024-03-08T12:51:35;15.00;;;10.70;;
80705;SDS011;70229;48.010;7.852;2024-03-08T12:54:01;17.95;;;12.50;;
80705;SDS011;70229;48.010;7.852;2024-03-08T12:56:31;16.92;;;12.20;;
80705;SDS011;70229;48.010;7.852;2024-03-08T12:58:58;18.00;;;11.20;;
80705;SDS011;70229;48.010;7.852;2024-03-08T13:01:25;16.63;;;12.35;;
80705;SDS011;70229;48.010;7.852;2024-03-08T13:03:51;15.05;;;11.10;;
80705;SDS011;70229;48.010;7.852;2024-03-08T13:06:17;15.35;;;11.57;;
80705;SDS011;70229;48.010;7.852;2024-03-08T13:08:46;17.92;;;11.77;;
80705;SDS011;70229;48.010;7.852;2024-03-08T13:11:13;18.02;;;10.73;;
80705;SDS011;70229;48.010;7.852;2024-03-08T13:13:42;15.45;;;12.35;;
80705;SDS011;70229;48.010;7.852;2024-03-08T13:16:09;13.95;;;11.95;;
80705;SDS011;70229;48.010;7.852;2024-03-08T13:18:35;16.90;;;12.90;;
80705;SDS011;70229;48.010;7.852;2024-03-08T13:21:01;15.30;;;11.98;;
80705;SDS011;70229;48.010;7.852;2024-03-08T13:23:36;16.85;;;12.18;;
80705;SDS011;70229;48.010;7.852;2024-03-08T13:26:09;17.42;;;13.43;;
80705;SDS011;70229;48.010;7.852;2024-03-08T13:28:40;15.15;;;12.60;;
80705;SDS011;70229;48.010;7.852;2024-03-08T13:31:06;14.15;;;10.70;;
80705;SDS011;70229;48.010;7.852;2024-03-08T13:33:35;15.15;;;11.85;;
80705;SDS011;70229;48.010;7.852;2024-03-08T13:36:04;13.27;;;9.95;;
80705;SDS011;70229;48.010;7.852;2024-03-08T13:38:42;15.13;;;11.25;;
80705;SDS011;70229;48.010;7.852;2024-03-08T13:41:12;15.55;;;12.43;;
80705;SDS011;70229;48.010;7.852;2024-03-08T13:43:46;15.25;;;10.75;;
80705;SDS011;70229;48.010;7.852;2024-03-08T13:46:14;14.18;;;10.23;;
80705;SDS011;70229;48.010;7.852;2024-03-08T13:48:40;13.00;;;10.60;;
80705;SDS011;70229;48.010;7.852;2024-03-08T13:51:06;10.98;;;9.77;;
80705;SDS011;70229;48.010;7.852;2024-03-08T13:53:33;14.13;;;11.05;;
80705;SDS011;70229;48.010;7.852;2024-03-08T13:56:02;13.13;;;10.88;;
80705;SDS011;70229;48.010;7.852;2024-03-08T13:58:28;19.65;;;11.68;;
80705;SDS011;70229;48.010;7.852;2024-03-08T14:00:53;15.25;;;10.02;;
80705;SDS011;70229;48.010;7.852;2024-03-08T14:03:20;16.15;;;10.15;;
80705;SDS011;70229;48.010;7.852;2024-03-08T14:05:46;15.57;;;11.50;;
80705;SDS011;70229;48.010;7.852;2024-03-08T14:08:12;15.32;;;10.55;;
80705;SDS011;70229;48.010;7.852;2024-03-08T14:10:38;16.02;;;10.93;;
80705;SDS011;70229;48.010;7.852;2024-03-08T14:13:04;12.40;;;8.98;;
80705;SDS011;70229;48.010;7.852;2024-03-08T14:15:33;14.52;;;10.40;;
80705;SDS011;70229;48.010;7.852;2024-03-08T14:17:59;12.13;;;9.80;;
80705;SDS011;70229;48.010;7.852;2024-03-08T14:20:26;12.45;;;9.85;;
80705;SDS011;70229;48.010;7.852;2024-03-08T14:22:52;13.77;;;10.02;;
80705;SDS011;70229;48.010;7.852;2024-03-08T14:25:22;13.00;;;9.65;;
80705;SDS011;70229;48.010;7.852;2024-03-08T14:27:51;14.32;;;11.00;;
80705;SDS011;70229;48.010;7.852;2024-03-08T14:30:27;12.13;;;9.85;;
80705;SDS011;70229;48.010;7.852;2024-03-08T14:33:03;15.60;;;11.10;;
80705;SDS011;70229;48.010;7.852;2024-03-08T14:35:30;14.15;;;10.43;;
80705;SDS011;70229;48.010;7.852;2024-03-08T14:37:56;14.43;;;10.27;;
80705;SDS011;70229;48.010;7.852;2024-03-08T14:40:22;15.30;;;10.48;;
80705;SDS011;70229;48.010;7.852;2024-03-08T14:42:51;14.10;;;9.80;;
80705;SDS011;70229;48.010;7.852;2024-03-08T14:45:17;13.73;;;12.10;;
80705;SDS011;70229;48.010;7.852;2024-03-08T14:47:46;12.15;;;9.27;;
80705;SDS011;70229;48.010;7.852;2024-03-08T14:50:22;14.10;;;10.05;;
80705;SDS011;70229;48.010;7.852;2024-03-08T14:52:48;13.70;;;10.50;;
80705;SDS011;70229;48.010;7.852;2024-03-08T14:55:17;14.40;;;11.30;;
80705;SDS011;70229;48.010;7.852;2024-03-08T14:57:46;17.75;;;11.40;;
80705;SDS011;70229;48.010;7.852;2024-03-08T15:00:19;14.35;;;9.70;;
80705;SDS011;70229;48.010;7.852;2024-03-08T15:02:54;15.85;;;11.18;;
80705;SDS011;70229;48.010;7.852;2024-03-08T15:05:22;14.15;;;10.65;;
80705;SDS011;70229;48.010;7.852;2024-03-08T15:07:51;14.55;;;9.38;;
80705;SDS011;70229;48.010;7.852;2024-03-08T15:10:20;13.18;;;10.25;;